Decoded Metar for LFSG (EPINAL in FRANCE) (IATA:EPL) | Meteo·Mobile Aviation Weather
aviador You're here:

LFSG Decoded Metar

EPINAL in FRANCE
Report Time2019-02-17 07:30:00
UTC Time2019-02-17 07:51:11
Flight Rules vfr VFR
Wind190° at 05 kt
W.Decomp.*RWY 26: 1.6 kt HW 4.7 kt LCW
W.Rank190° ranks 1
Current wind is below 190° avg. (8.5)
Visibility9999 m
Phenomena:N/A
Clouds:N/A
Expected CloudBase > 2,400 ft AGL from Temp-Dew spread
CeilingNone
Temp05°C (ISA -8)
Dew Point-1°C (66% RH)
AAT1.1°C
QNH1025 hPa
Density Alt-187 ft
Elevation1,083 ft
Report Wrong Elevation
Raw Report
METAR LFSG 170730Z AUTO 19005KT CAVOK 05/M01 Q1025=

Extra information for LFSG:More info

Metar Taf Metar & Taf Last 4 Metars F.Rules Stats Wind Profile Meteogram Temp Stats Airport Information Weather charts Add Link Nearby VenuesMetar ALERT Operation Metar Decoded Social comments